Salt Lake City, Utah
Traffic Map
Current Weather Conditions
Salt Lake City, Utah
Few Clouds Thunderstorm
Few Clouds
24°
Feels Like: 24°
Wind Chill: 24° Ceiling: Unl
Heat Index: 24° Visibility: 10mi
Dew Point: Wind: 10mph
Humidity: 27% Direction: 310° (NW)
Pressure: 29.86in Gusts: 18mph
Raw Report DataKSLC 042057Z 31009G16KT 10SM TS FEW070 24/04 A2986 RMK AO2 LTG DSNT S TSE56B57 T02440044
Traffic Incident Summary
Active as of:
Severity:
Category:
InformationThere was an issue retrieving the traffic information for this location. Please try a different location or try again shortly.
Advertisements
Track Severe Weather on mobile